Latest Weather Observations for Casey (Skiway South)*

IDT60801

Issued at 10:02 am EDT Saturday 20 December 2014 (issued every 30 minutes, with the page automatically refreshed every 10 minutes)

About weather observations | Map of weather stations | Latest weather observations for ANT | Other Formats
Station Details ID: 300060 Name: CASEY SKIWAY SOUTH Lat: -66.28 Lon: 110.76 Height: 390.0 m
Data from the previous 72 hours. | See also: Recent months for locations in Antarctica
Date/Time
EDT
Temp
°C
App
Temp
°C
Dew
Point
Rel
Hum
%
Delta-T
°C
Wind Press
QNH
hPa
Press
MSL
hPa
Rain
since 9 am
mm
Dir
 
Spd
km/h
Gust
km/h
Spd
kts
Gust
kts
20/09:31am -1.7 -11.4 -5.4 76 1.1 ENE 37 44 20 24 984.6 - -
20/09:01am -1.6 -11.2 -5.1 77 1.0 ENE 37 50 20 27 984.3 - -
20/08:31am -1.5 -11.5 -4.8 78 1.0 ENE 39 48 21 26 984.3 - -
20/08:01am -1.9 -11.5 -4.6 82 0.8 ENE 37 44 20 24 984.2 - -
20/07:31am -2.0 -10.9 -5.0 80 0.9 ENE 33 39 18 21 984.1 - -
20/07:01am -1.8 -10.1 -5.1 78 1.0 ENE 30 39 16 21 984.0 - -
20/06:58am -1.7 -10.0 -5.0 78 1.0 ENE 30 39 16 21 983.8 - -
20/06:31am -2.0 -7.5 -5.0 80 0.9 ENE 15 20 8 11 983.8 - -
20/06:01am -3.1 -7.5 -5.4 84 0.6 E 9 11 5 6 983.6 - -
20/05:31am -2.8 -9.6 -5.4 82 0.7 E 22 28 12 15 983.2 - -
20/05:01am -2.7 -11.1 -5.7 80 0.8 ENE 30 37 16 20 982.9 - -
20/04:31am -2.6 -11.5 -5.6 80 0.8 E 33 43 18 23 982.5 - -
20/04:01am -2.5 -12.2 -5.3 81 0.8 E 37 44 20 24 982.4 - -
20/03:31am -2.2 -10.1 -4.8 82 0.7 ENE 28 37 15 20 982.2 - -
20/03:01am -2.5 -9.7 -5.0 83 0.7 E 24 28 13 15 982.1 - -
20/02:31am -2.2 -9.3 -4.8 82 0.7 E 24 28 13 15 981.7 - -
20/02:01am -2.4 -11.3 -4.9 83 0.7 E 33 41 18 22 981.3 - -
20/01:31am -2.4 -11.6 -4.7 84 0.6 ENE 35 41 19 22 980.8 - -
20/01:01am -2.3 -10.9 -4.3 86 0.5 E 32 41 17 22 980.4 - -
20/12:31am -2.3 -13.1 -5.3 80 0.8 E 43 46 23 25 979.8 - -
20/12:01am -2.2 -13.6 -5.2 80 0.9 E 46 54 25 29 979.2 - -
 
Date/Time
EDT
Temp
°C
App
Temp
°C
Dew
Point
Rel
Hum
%
Delta-T
°C
Wind Press
QNH
hPa
Press
MSL
hPa
Rain
since 9 am
mm
Dir
 
Spd
km/h
Gust
km/h
Spd
kts
Gust
kts
19/11:31pm -1.8 -14.7 -4.9 79 0.9 E 54 61 29 33 978.6 - -
19/11:01pm -1.5 -14.3 -4.8 78 1.0 E 54 69 29 37 977.7 - -
19/10:31pm -1.1 -14.3 -4.6 77 1.1 E 56 67 30 36 977.3 - -
19/10:01pm -0.8 -13.3 -4.7 75 1.2 E 52 61 28 33 977.2 - -
19/09:31pm -0.5 -13.0 -5.3 70 1.5 E 52 65 28 35 976.7 - -
19/09:01pm -0.2 -10.6 -4.6 72 1.4 E 41 52 22 28 976.9 - -
19/08:31pm -0.1 -10.1 -4.9 70 1.6 E 39 48 21 26 977.4 - -
19/08:01pm 0.2 -8.1 -4.8 69 1.7 ESE 30 35 16 19 977.6 - -
19/07:31pm 0.5 -7.8 -4.9 67 1.8 ESE 30 37 16 20 977.5 - -
19/07:01pm 0.7 -8.1 -4.7 67 1.8 ESE 33 39 18 21 977.5 - -
19/06:31pm 0.8 -6.4 -5.4 63 2.1 ESE 24 37 13 20 977.3 - -
19/06:01pm 0.9 -4.3 -5.8 61 2.2 E 13 24 7 13 977.8 - -
19/05:31pm 0.3 -4.9 -6.1 62 2.1 SSW 13 19 7 10 977.6 - -
19/05:01pm 0.8 -3.1 -6.1 60 2.2 SSW 6 15 3 8 977.3 - -
19/04:31pm -0.2 -7.0 -5.2 69 1.6 N 22 35 12 19 976.9 - -
19/04:18pm 0.3 -8.6 -5.3 66 1.8 ENE 33 48 18 26 976.6 - -
19/04:01pm -0.1 -13.0 -5.7 66 1.8 E 54 65 29 35 975.4 - -
19/03:31pm 0.2 -13.7 -5.4 66 1.8 E 59 69 32 37 974.9 - -
19/03:01pm -0.5 -13.8 -5.5 69 1.6 E 56 67 30 36 974.9 - -
19/02:31pm -0.4 -13.0 -5.8 67 1.7 E 52 67 28 36 974.8 - -
19/02:01pm -0.5 -12.7 -5.9 67 1.7 E 50 59 27 32 975.0 - -
19/01:31pm -0.9 -14.5 -6.4 66 1.7 E 57 67 31 36 974.5 - -
19/01:01pm -1.0 -13.7 -6.9 64 1.8 ESE 52 61 28 33 974.4 - -
19/12:31pm -1.4 -15.0 -6.9 66 1.6 ESE 57 69 31 37 974.4 - -
19/12:01pm -1.5 -15.5 -7.0 66 1.6 ESE 59 72 32 39 974.4 - -
19/11:31am -2.1 -15.8 -7.4 67 1.5 ESE 57 76 31 41 974.0 - -
19/11:24am -1.8 -15.5 -7.5 65 1.6 ESE 57 76 31 41 974.1 - -
19/11:01am -2.1 -15.2 -7.4 67 1.5 ESE 54 63 29 34 974.5 - -
19/10:31am -2.5 -16.2 -7.6 68 1.4 ESE 57 69 31 37 974.0 - -
19/10:01am -2.5 -17.3 -7.6 68 1.4 ESE 63 74 34 40 974.1 - -
19/09:31am -2.8 -17.3 -8.1 67 1.4 ESE 61 72 33 39 974.2 - -
19/09:01am -2.5 -17.4 -8.2 65 1.5 ESE 63 72 34 39 974.2 - -
19/08:31am -2.7 -16.8 -8.2 66 1.5 ESE 59 70 32 38 974.7 - -
19/08:01am -2.7 -16.4 -8.3 65 1.5 ESE 57 69 31 37 974.4 - -
19/07:36am -2.4 -16.1 -8.1 65 1.6 ESE 57 76 31 41 974.2 - -
19/07:31am -2.2 -16.3 -8.3 63 1.7 ESE 59 70 32 38 974.6 - -
19/07:01am -1.1 -14.8 -7.6 61 1.9 ESE 57 87 31 47 974.3 - -
19/06:46am -2.1 -17.3 -8.0 64 1.6 ESE 65 83 35 45 974.7 - -
19/06:42am -1.9 -18.8 -7.6 65 1.6 E 74 83 40 45 974.4 - -
19/06:31am -1.2 -13.9 -7.5 62 1.8 ESE 52 83 28 45 975.3 - -
19/06:04am -2.6 -14.6 -7.5 69 1.3 ESE 48 72 26 39 974.5 - -
19/06:01am -2.7 -15.1 -7.8 68 1.4 ESE 50 63 27 34 975.3 - -
19/05:31am -2.5 -15.2 -7.6 68 1.4 E 52 63 28 34 975.0 - -
19/05:01am -2.5 -14.1 -7.4 69 1.3 E 46 57 25 31 975.2 - -
19/04:31am -2.7 -12.2 -7.2 71 1.2 E 35 43 19 23 975.9 - -
19/04:01am -2.6 -13.8 -7.1 71 1.2 E 44 52 24 28 975.9 - -
19/03:31am -2.8 -12.2 -6.9 73 1.1 E 35 41 19 22 976.1 - -
19/03:01am -3.0 -14.0 -7.0 74 1.1 E 43 48 23 26 976.2 - -
19/02:31am -2.5 -13.6 -6.8 72 1.2 E 44 54 24 29 976.0 - -
19/02:01am -2.6 -13.2 -6.9 72 1.2 ESE 41 48 22 26 976.6 - -
19/01:31am -2.9 -12.4 -7.0 73 1.1 ESE 35 46 19 25 976.4 - -
19/01:01am -2.8 -12.6 -6.8 74 1.1 E 37 43 20 23 976.4 - -
19/12:31am -2.6 -12.8 -6.4 75 1.0 E 39 48 21 26 976.5 - -
19/12:01am -2.2 -13.1 -6.2 74 1.1 E 43 52 23 28 976.4 - -
 
Date/Time
EDT
Temp
°C
App
Temp
°C
Dew
Point
Rel
Hum
%
Delta-T
°C
Wind Press
QNH
hPa
Press
MSL
hPa
Rain
since 9 am
mm
Dir
 
Spd
km/h
Gust
km/h
Spd
kts
Gust
kts
18/11:31pm -1.9 -13.4 -6.4 71 1.3 E 46 56 25 30 976.2 - -
18/11:01pm -1.4 -12.5 -6.1 70 1.4 E 44 52 24 28 976.4 - -
18/10:31pm -1.2 -13.1 -6.3 68 1.5 E 48 56 26 30 976.4 - -
18/10:01pm -1.3 -11.8 -5.9 71 1.4 E 41 48 22 26 976.2 - -
18/09:35pm -1.3 -13.5 -5.9 71 1.4 E 50 69 27 37 976.3 - -
18/09:31pm -1.3 -14.3 -6.2 69 1.5 E 54 69 29 37 976.5 - -
18/09:19pm -1.2 -13.4 -5.8 71 1.4 E 50 70 27 38 976.1 - -
18/09:01pm -1.0 -11.9 -5.8 70 1.5 E 43 56 23 30 976.4 - -
18/08:31pm -0.6 -9.4 -6.0 67 1.7 E 32 39 17 21 976.7 - -
18/08:01pm -0.4 -10.9 -5.8 67 1.7 E 41 50 22 27 976.8 - -
18/07:31pm -0.4 -11.4 -5.0 71 1.5 E 44 52 24 28 976.5 - -
18/07:01pm -0.5 -11.5 -4.9 72 1.4 E 44 54 24 29 976.4 - -
18/06:31pm -0.2 -13.1 -5.4 68 1.7 E 54 63 29 34 976.2 - -
18/06:01pm -0.1 -12.2 -4.9 70 1.6 E 50 61 27 33 976.5 - -
18/05:31pm 0.3 -11.8 -4.9 68 1.7 E 50 61 27 33 976.4 - -
18/05:01pm 0.5 -10.4 -4.3 70 1.6 E 44 54 24 29 976.2 - -
18/04:31pm 0.1 -11.6 -4.5 71 1.5 E 48 57 26 31 976.1 - -
18/04:01pm -0.2 -12.7 -5.4 68 1.7 E 52 63 28 34 976.1 - -
18/03:31pm -0.4 -12.1 -4.8 72 1.4 E 48 63 26 34 976.0 - -
18/03:01pm -0.2 -10.2 -5.0 70 1.6 E 39 46 21 25 976.0 - -
18/02:56pm -0.1 -9.8 -5.3 68 1.7 E 37 46 20 25 976.1 - -
18/02:31pm -0.3 -8.0 -6.7 62 2.0 NE 26 33 14 18 976.5 - -
18/02:01pm -0.1 -7.8 -6.3 63 1.9 ENE 26 32 14 17 976.2 - -
18/01:31pm -0.4 -8.8 -6.4 64 1.9 ENE 30 35 16 19 975.7 - -
18/01:01pm -0.9 -9.4 -6.8 64 1.8 NE 30 35 16 19 975.7 - -
18/12:31pm -1.2 -9.8 -7.7 61 1.9 ENE 30 37 16 20 975.8 - -
18/12:01pm -2.5 -9.1 -9.4 59 1.8 NE 19 24 10 13 976.0 - -
18/11:31am -2.9 -9.6 -10.2 57 1.9 ENE 19 24 10 13 976.0 - -
18/11:01am -3.4 -11.5 -11.1 55 1.9 ENE 26 30 14 16 976.0 - -
18/10:31am -4.5 -13.0 -12.1 55 1.7 E 28 32 15 17 976.0 - -
18/10:01am -4.9 -13.4 -12.3 56 1.7 E 28 30 15 16 976.0 - -
18/09:31am -6.4 -15.0 -12.9 60 1.3 E 28 30 15 16 976.1 - -
18/09:01am -6.9 -15.1 -12.9 62 1.2 E 26 28 14 15 976.3 - -
18/08:31am -7.8 -14.9 -13.6 63 1.1 ESE 20 24 11 13 976.4 - -
18/08:01am -8.1 -14.6 -13.7 64 1.0 ESE 17 22 9 12 976.9 - -
18/07:31am -9.3 -15.8 -14.1 68 0.8 E 17 19 9 10 977.2 - -
18/07:01am -9.8 -16.4 -14.9 66 0.8 ESE 17 19 9 10 977.5 - -
18/06:31am -8.1 -15.1 -11.4 77 0.5 SE 20 20 11 11 977.9 - -
18/06:01am -8.2 -15.2 -12.2 73 0.7 SE 20 22 11 12 978.2 - -
18/05:31am -8.6 -15.7 -12.9 71 0.7 SE 20 22 11 12 978.7 - -
18/05:01am -8.2 -16.0 -12.0 74 0.6 SE 24 26 13 14 979.1 - -
18/04:31am -7.5 -14.8 -10.7 78 0.6 SE 22 24 12 13 979.4 - -
18/04:01am -8.0 -15.4 -12.5 70 0.8 SE 22 24 12 13 979.7 - -
18/03:31am -7.1 -14.4 -10.3 78 0.6 SE 22 24 12 13 980.1 - -
18/03:01am -7.1 -14.0 -11.3 72 0.8 SSE 20 22 11 12 980.5 - -
18/02:31am -6.7 -12.5 -9.2 82 0.4 SE 15 19 8 10 980.9 - -
18/02:01am -5.8 -12.0 -8.8 79 0.6 ESE 17 22 9 12 981.4 - -
18/01:31am -5.8 -12.9 -8.1 84 0.4 SSE 22 26 12 14 981.4 - -
18/01:01am -5.5 -11.6 -8.1 82 0.5 SSE 17 20 9 11 982.1 - -
18/12:31am -4.6 -10.7 -7.7 79 0.7 SSE 17 22 9 12 982.5 - -
18/12:01am -4.2 -9.5 -7.3 79 0.7 SSE 13 19 7 10 983.0 - -
 
Date/Time
EDT
Temp
°C
App
Temp
°C
Dew
Point
Rel
Hum
%
Delta-T
°C
Wind Press
QNH
hPa
Press
MSL
hPa
Rain
since 9 am
mm
Dir
 
Spd
km/h
Gust
km/h
Spd
kts
Gust
kts
17/11:31pm -3.9 -8.4 -6.8 80 0.7 SSE 9 11 5 6 983.4 - -
17/11:01pm -3.7 -9.3 -6.6 80 0.7 SSE 15 17 8 9 983.6 - -
17/10:31pm -3.3 -9.2 -5.9 82 0.7 SSE 17 19 9 10 984.0 - -
17/10:01pm -2.6 -7.2 -7.5 69 1.3 SSW 9 13 5 7 984.4 - -
17/09:31pm -2.3 -6.5 -7.4 68 1.4 SSW 7 9 4 5 984.5 - -

Other Formats:

Comma delimited format used in spreadsheet applications
http://www.bom.gov.au/fwo/IDT60803/IDT60803.89809.axf

JavaScript Object Notation format (JSON) in row-major order
http://www.bom.gov.au/fwo/IDT60803/IDT60803.89809.json